Flight Track Log - Related Links

Times and Time Zones

All times are in EDT time to prevent confusion due to time zone crossing. See the JBU1269 flight status page for this flight to view local times or setup timezone preferences in your user account.

Time Position Orientation Groundspeed Altitude Reporting Facility
EDT Latitude Longitude Course Direction KTS MPH feet Rate Location/Type
Tue 09:42:11 PM 42.3500 -71.0167 144° Southeast 171 197 800  Level KA90
Tue 09:42:59 PM 42.3167 -70.9833 144° Southeast 209 241 1,600 1,444 Climbing KA90
Tue 09:43:59 PM 42.3167 -70.9000 90° East 244 281 3,400 2,000 Climbing KA90
Tue 09:45:05 PM 42.3333 -70.8000 77° East 279 321 5,800 2,139 Climbing KA90
Tue 09:45:54 PM 42.3061 -70.7219 115° Southeast 324 373 7,500 2,367 Climbing Boston Center
Tue 09:46:54 PM 42.2447 -70.6619 144° Southeast 279 321 10,100 1,932 Climbing Boston Center
Tue 09:47:52 PM 42.1672 -70.6306 163° South 272 313 11,300 1,765 Climbing Boston Center
Tue 09:48:53 PM 42.0778 -70.6417 185° South 293 337 13,600 2,200 Climbing Boston Center
Tue 09:49:52 PM 41.9928 -70.6831 200° South 309 356 15,700 1,916 Climbing Boston Center
Tue 09:50:52 PM 41.9125 -70.7467 157° South 323 372 17,400 1,820 Climbing Boston Center
Tue 09:51:54 PM 41.8344 -70.8297 218° Southwest 339 390 19,400 1,770 Climbing Boston Center
Tue 09:52:54 PM 41.7650 -70.9175 223° Southwest 350 403 21,000 1,576 Climbing Boston Center
Tue 09:53:52 PM 41.6869 -71.0058 220° Southwest 360 414 22,500 1,576 Climbing Boston Center
Tue 09:54:52 PM 41.6067 -71.0964 220° Southwest 373 429 24,100 1,475 Climbing Boston Center
Tue 09:55:54 PM 41.5286 -71.1839 220° Southwest 373 429 25,500 950 Climbing Boston Center
Tue 09:56:52 PM 41.4461 -71.2742 219° Southwest 373 429 26,000 250 Climbing Boston Center
Tue 09:57:54 PM 41.3658 -71.3614 219° Southwest 373 429 26,000  Level Boston Center
Tue 09:58:52 PM 41.2894 -71.4567 223° Southwest 379 436 26,000  Level Boston Center
Tue 09:59:54 PM 41.2047 -71.5406 217° Southwest 379 436 26,000  Level Boston Center
Tue 10:00:53 PM 41.1469 -71.6325 230° Southwest 372 428 26,000  Level Boston Center
Tue 10:01:53 PM 41.1022 -71.7625 245° Southwest 371 427 26,000  Level Boston Center
Tue 10:02:53 PM 41.0633 -71.8922 248° West 377 434 26,000  Level Boston Center
Tue 10:03:54 PM 41.0139 -72.0386 246° West 389 448 26,000  Level Boston Center
Tue 10:04:52 PM 40.9706 -72.1681 246° West 394 453 26,000  Level Boston Center
Tue 10:05:53 PM 40.9269 -72.2972 246° West 394 453 26,000  Level Boston Center
Tue 10:06:52 PM 40.8519 -72.3961 225° Southwest 389 448 26,000  Level Boston Center
Tue 10:07:54 PM 40.7708 -72.4867 220° Southwest 378 435 26,000  Level Boston Center
Tue 10:08:54 PM 40.6872 -72.5769 219° Southwest 383 441 26,000  Level Boston Center
Tue 10:09:54 PM 40.6122 -72.6725 224° Southwest 388 447 26,000  Level Boston Center
Tue 10:10:53 PM 40.5264 -72.7650 219° Southwest 388 447 26,000  Level Boston Center
Tue 10:11:53 PM 40.4469 -72.8544 221° Southwest 388 447 26,000  Level Boston Center
Tue 10:12:52 PM 40.3675 -72.9467 222° Southwest 388 447 26,000  Level Boston Center
Tue 10:13:52 PM 40.2858 -73.0411 221° Southwest 388 447 26,000  Level Boston Center
Tue 10:15:37 PM 40.1439 -73.2033 221° Southwest 372 428 26,000  Level Washington Center
Tue 10:16:39 PM 40.0622 -73.2956 221° Southwest 378 435 26,000  Level Washington Center
Tue 10:17:37 PM 39.9808 -73.3903 222° Southwest 388 447 26,000  Level Washington Center
Tue 10:18:38 PM 39.9072 -73.4708 220° Southwest 388 447 26,000  Level Washington Center
Tue 10:19:39 PM 39.8233 -73.5625 220° Southwest 399 459 26,000  Level Washington Center
Tue 10:20:37 PM 39.7417 -73.6539 221° Southwest 399 459 26,000  Level Washington Center
Tue 10:21:37 PM 39.6575 -73.7453 220° Southwest 399 459 26,000  Level Washington Center
Tue 10:22:37 PM 39.5736 -73.8389 221° Southwest 399 459 26,000  Level Washington Center
Tue 10:23:38 PM 39.4936 -73.9269 220° Southwest 399 459 26,000  Level Washington Center
Tue 10:24:38 PM 39.4094 -74.0203 221° Southwest 399 459 26,000  Level Washington Center
Tue 10:25:37 PM 39.3250 -74.1106 220° Southwest 399 459 26,000  Level Washington Center
Tue 10:26:38 PM 39.2450 -74.2033 222° Southwest 399 459 26,000  Level Washington Center
Tue 10:27:38 PM 39.1606 -74.2933 220° Southwest 399 459 26,000  Level Washington Center
Tue 10:28:37 PM 39.0781 -74.3831 220° Southwest 399 459 26,000  Level Washington Center
Tue 10:29:39 PM 38.9956 -74.4700 219° Southwest 399 459 26,000  Level Washington Center
Tue 10:30:38 PM 38.9108 -74.5619 220° Southwest 399 459 26,000  Level Washington Center
Tue 10:31:37 PM 38.8303 -74.6508 221° Southwest 399 459 26,000  Level Washington Center
Tue 10:32:38 PM 38.7475 -74.7400 220° Southwest 399 459 26,000  Level Washington Center
Tue 10:33:39 PM 38.6606 -74.8339 220° Southwest 399 459 26,000  Level Washington Center
Tue 10:34:37 PM 38.5756 -74.9144 217° Southwest 399 459 26,000  Level Washington Center
Tue 10:35:38 PM 38.4822 -74.9950 214° Southwest 399 459 26,000  Level Washington Center
Tue 10:36:38 PM 38.3908 -75.0778 215° Southwest 404 465 26,000  Level Washington Center
Tue 10:37:38 PM 38.2911 -75.1686 216° Southwest 404 465 26,000  Level Washington Center
Tue 10:38:38 PM 38.1997 -75.2456 213° Southwest 404 465 26,000  Level Washington Center
Tue 10:39:37 PM 38.1081 -75.3278 215° Southwest 404 465 26,000  Level Washington Center
Tue 10:40:38 PM 38.0144 -75.4019 212° Southwest 404 465 26,000  Level Washington Center
Tue 10:41:39 PM 37.9228 -75.4811 214° Southwest 409 471 26,000  Level Washington Center
Tue 10:42:36 PM 37.8289 -75.5575 213° Southwest 409 471 26,000  Level Washington Center
Tue 10:43:38 PM 37.7394 -75.6392 216° Southwest 409 471 26,000  Level Washington Center
Tue 10:44:38 PM 37.6456 -75.7178 214° Southwest 409 471 26,000  Level Washington Center
Tue 10:45:37 PM 37.5514 -75.7961 213° Southwest 409 471 26,000  Level Washington Center
Tue 10:46:37 PM 37.4594 -75.8717 213° Southwest 409 471 26,000  Level Washington Center
Tue 10:47:39 PM 37.3656 -75.9497 213° Southwest 404 465 26,000  Level Washington Center
Tue 10:48:39 PM 37.2733 -76.0278 214° Southwest 404 465 26,000  Level Washington Center
Tue 10:49:37 PM 37.1814 -76.1053 214° Southwest 404 465 26,000  Level Washington Center
Tue 10:50:38 PM 37.0850 -76.1778 211° Southwest 404 465 26,000  Level Washington Center
Tue 10:51:37 PM 36.9928 -76.2550 214° Southwest 404 465 26,000  Level Washington Center
Tue 10:52:39 PM 36.8986 -76.3322 213° Southwest 404 465 26,000  Level Washington Center
Tue 10:53:37 PM 36.8042 -76.4092 213° Southwest 409 471 26,000  Level Washington Center
Tue 10:54:38 PM 36.7078 -76.4883 213° Southwest 414 476 26,000  Level Washington Center
Tue 10:55:38 PM 36.6258 -76.5600 215° Southwest 414 476 26,000  Level Washington Center
Tue 10:56:37 PM 36.5311 -76.6336 212° Southwest 414 476 26,000  Level Washington Center
Tue 10:57:39 PM 36.4367 -76.7097 213° Southwest 414 476 26,000  Level Washington Center
Tue 10:58:39 PM 36.3442 -76.7858 214° Southwest 414 476 26,000  Level Washington Center
Tue 10:59:38 PM 36.2517 -76.8592 213° Southwest 414 476 26,000  Level Washington Center
Tue 11:00:38 PM 36.1569 -76.9350 213° Southwest 409 471 26,000  Level Washington Center
Tue 11:01:38 PM 36.0642 -77.0103 213° Southwest 409 471 26,000  Level Washington Center
Tue 11:02:39 PM 35.9694 -77.0856 213° Southwest 409 471 26,000  Level Washington Center
Tue 11:03:39 PM 35.8681 -77.1683 213° Southwest 404 465 26,000  Level Washington Center
Tue 11:04:38 PM 35.7753 -77.2433 213° Southwest 404 465 26,000  Level Washington Center
Tue 11:05:39 PM 35.6806 -77.3156 212° Southwest 404 465 26,000  Level Washington Center
Tue 11:06:37 PM 35.5875 -77.3903 213° Southwest 404 465 26,000  Level Washington Center
Tue 11:07:38 PM 35.4906 -77.4644 212° Southwest 409 471 26,000  Level Washington Center
Tue 11:08:39 PM 35.3933 -77.5411 213° Southwest 414 476 26,000  Level Washington Center
Tue 11:09:39 PM 35.3042 -77.6281 219° Southwest 414 476 26,000  Level Washington Center
Tue 11:10:40 PM 35.2169 -77.7200 221° Southwest 419 482 26,000  Level Washington Center
Tue 11:11:37 PM 35.1278 -77.8092 219° Southwest 419 482 26,000  Level Washington Center
Tue 11:12:37 PM 35.0406 -77.9006 221° Southwest 419 482 26,000  Level Washington Center
Tue 11:13:37 PM 34.9428 -77.9814 214° Southwest 419 482 26,000  Level Washington Center
Tue 11:14:38 PM 34.8375 -78.0414 205° Southwest 426 490 26,000  Level Washington Center
Tue 11:15:38 PM 34.7442 -78.1044 209° Southwest 421 484 26,000  Level Washington Center
Tue 11:17:29 PM 34.5325 -78.2300 206° Southwest 438 504 26,000  Level Jacksonville Center
Tue 11:18:29 PM 34.4261 -78.2886 204° Southwest 438 504 26,000  Level Jacksonville Center
Tue 11:19:29 PM 34.3200 -78.3522 206° Southwest 438 504 26,000  Level Jacksonville Center
Tue 11:20:29 PM 34.2139 -78.4156 206° Southwest 438 504 26,000  Level Jacksonville Center
Tue 11:21:29 PM 34.1075 -78.4786 206° Southwest 438 504 26,000  Level Jacksonville Center
Tue 11:22:29 PM 33.9969 -78.5392 204° Southwest 438 504 26,000  Level Jacksonville Center
Tue 11:23:29 PM 33.8906 -78.5994 205° Southwest 438 504 26,000  Level Jacksonville Center
Tue 11:24:29 PM 33.7842 -78.6622 206° Southwest 438 504 26,000  Level Jacksonville Center
Tue 11:25:29 PM 33.6900 -78.7167 206° Southwest 438 504 26,000  Level Jacksonville Center
Tue 11:26:29 PM 33.5836 -78.7767 205° Southwest 438 504 26,000  Level Jacksonville Center
Tue 11:27:29 PM 33.4769 -78.8364 205° Southwest 433 498 26,000  Level Jacksonville Center
Tue 11:28:29 PM 33.3664 -78.8986 205° Southwest 422 486 26,000  Level Jacksonville Center
Tue 11:29:29 PM 33.2617 -78.9578 205° Southwest 417 480 26,000  Level Jacksonville Center
Tue 11:30:29 PM 33.1592 -79.0169 206° Southwest 417 480 26,000 50 Level Jacksonville Center
Tue 11:31:29 PM 33.0544 -79.0761 205° Southwest 417 480 26,100 600 Climbing Jacksonville Center
Tue 11:32:29 PM 32.9500 -79.1350 205° Southwest 417 480 27,200 950 Climbing Jacksonville Center
Tue 11:33:29 PM 32.8431 -79.1961 206° Southwest 422 486 28,000 400 Climbing Jacksonville Center
Tue 11:34:29 PM 32.7383 -79.2547 205° Southwest 422 486 28,000  Level Jacksonville Center
Tue 11:35:29 PM 32.6317 -79.3158 206° Southwest 422 486 28,000  Level Jacksonville Center
Tue 11:36:29 PM 32.5247 -79.3767 206° Southwest 422 486 28,000  Level Jacksonville Center
Tue 11:37:29 PM 32.4200 -79.4350 205° Southwest 422 486 28,000  Level Jacksonville Center
Tue 11:38:29 PM 32.3131 -79.4956 206° Southwest 422 486 28,000  Level Jacksonville Center
Tue 11:39:29 PM 32.2039 -79.5536 204° Southwest 422 486 28,000  Level Jacksonville Center
Tue 11:40:29 PM 32.0969 -79.6164 206° Southwest 422 486 28,000  Level Jacksonville Center
Tue 11:41:29 PM 31.9900 -79.6764 205° Southwest 422 486 28,000  Level Jacksonville Center
Tue 11:42:29 PM 31.8808 -79.7342 204° Southwest 427 491 28,000  Level Jacksonville Center
Tue 11:43:29 PM 31.7758 -79.7939 206° Southwest 427 491 28,000 200 Level Jacksonville Center
Tue 11:44:29 PM 31.6644 -79.8536 205° Southwest 427 491 28,400 750 Climbing Jacksonville Center
Tue 11:45:29 PM 31.5572 -79.9108 204° Southwest 427 491 29,500 900 Climbing Jacksonville Center
Tue 11:46:29 PM 31.4536 -79.9433 195° South 427 491 30,200 700 Climbing Jacksonville Center
Tue 11:47:29 PM 31.3242 -79.9425 180° South 440 506 30,900 400 Climbing Jacksonville Center
Tue 11:48:29 PM 31.2008 -79.9294 175° South 447 514 31,000 50 Climbing Jacksonville Center
Tue 11:49:29 PM 31.0669 -79.9217 177° South 461 531 31,000  Level Jacksonville Center
Tue 11:50:29 PM 30.9436 -79.9181 179° South 469 540 31,000  Level Jacksonville Center
Tue 11:51:29 PM 30.8100 -79.9128 178° South 469 540 31,000  Level Jacksonville Center
Tue 11:53:52 PM 30.5000 -79.8978 178° South 468 539 31,000  Level Miami Center
Tue 11:54:51 PM 30.3708 -79.8917 178° South 474 545 31,000  Level Miami Center
Tue 11:55:50 PM 30.2461 -79.8856 178° South 462 532 31,000  Level Miami Center
Tue 11:56:51 PM 30.1147 -79.8819 179° South 457 526 31,000  Level Miami Center
Tue 11:57:52 PM 29.9878 -79.8758 178° South 465 535 31,000  Level Miami Center
Tue 11:58:52 PM 29.8586 -79.8700 178° South 470 541 31,000  Level Miami Center
Tue 11:59:52 PM 29.7522 -79.8717 181° South 470 541 31,000  Level Miami Center
Wed 12:00:52 AM 29.6000 -79.8722 180° South 470 541 31,000  Level Miami Center
Wed 12:01:52 AM 29.4728 -79.8736 181° South 464 534 31,000  Level Miami Center
Wed 12:02:52 AM 29.3456 -79.8725 180° South 464 534 31,000  Level Miami Center
Wed 12:03:53 AM 29.2164 -79.8664 178° South 459 528 31,000  Level Miami Center
Wed 12:04:50 AM 29.0869 -79.8700 181° South 459 528 31,000  Level Miami Center
Wed 12:05:50 AM 28.9578 -79.8642 178° South 459 528 31,000  Level Miami Center
Wed 12:06:51 AM 28.8283 -79.8631 180° South 459 528 31,000  Level Miami Center
Wed 12:07:53 AM 28.6992 -79.8594 179° South 464 534 31,000  Level Miami Center
Wed 12:08:50 AM 28.5678 -79.8583 180° South 464 534 31,000  Level Miami Center
Wed 12:09:50 AM 28.4406 -79.8550 179° South 464 534 31,000  Level Miami Center
Wed 12:10:50 AM 28.3092 -79.8539 180° South 464 534 31,000  Level Miami Center
Wed 12:11:50 AM 28.1778 -79.8503 179° South 469 540 31,000  Level Miami Center
Wed 12:12:52 AM 28.0483 -79.8469 179° South 474 545 31,000  Level Miami Center
Wed 12:13:51 AM 27.9147 -79.8458 180° South 474 545 31,000  Level Miami Center
Wed 12:14:52 AM 27.7894 -79.8447 180° South 468 539 31,000 -50 Level Miami Center
Wed 12:15:50 AM 27.6600 -79.8439 180° South 468 539 30,900 -1,169 Descending Miami Center
Wed 12:16:50 AM 27.5431 -79.8431 180° South 468 539 28,700 -2,250 Descending Miami Center
Wed 12:17:50 AM 27.4200 -79.8400 179° South 451 519 26,400 -2,400 Descending Miami Center
Wed 12:18:50 AM 27.2906 -79.8367 179° South 437 503 23,900 -2,300 Descending Miami Center
Wed 12:19:50 AM 27.1778 -79.8361 180° South 421 484 21,800 -2,050 Descending Miami Center
Wed 12:20:50 AM 27.0714 -79.8356 180° South 400 460 19,800 -1,950 Descending Miami Center
Wed 12:21:50 AM 26.9753 -79.8356 180° South 381 438 17,900 -2,050 Descending Miami Center
Wed 12:22:50 AM 26.8625 -79.8325 179° South 376 433 15,700 -1,950 Descending Miami Center
Wed 12:23:50 AM 26.7708 -79.8325 180° South 376 433 14,000 -1,829 Descending Miami Center
Wed 12:24:35 AM 26.6831 -79.8350 181° South 350 403 12,500 -1,920 Descending Miami Center
Wed 12:25:05 AM 26.6369 -79.8339 179° South 339 390 11,600 -1,680 Descending Miami Center
Wed 12:25:50 AM 26.5850 -79.8303 176° South 333 383 10,400 -1,556 Descending Miami Center
Wed 12:26:53 AM 26.4950 -79.8281 179° South 304 350 8,800 -1,200 Descending Miami Center
Wed 12:27:50 AM 26.4239 -79.8400 189° South 290 334 8,000 -407 Descending Miami Center
Wed 12:28:51 AM 26.3519 -79.8892 211° Southwest 278 320 8,000  Level Miami Center
Wed 12:29:51 AM 26.2964 -79.9411 220° Southwest 291 335 8,000  Level Miami Center
Wed 12:30:50 AM 26.2386 -80.0022 223° Southwest 291 335 8,000 -303 Level Miami Center
Wed 12:31:50 AM 26.1789 -80.0608 221° Southwest 291 335 7,400 -1,279 Descending Miami Center
Wed 12:32:52 AM 26.1519 -80.1433 250° West 280 322 5,400 -2,000 Descending Miami Center
Wed 12:33:50 AM 26.1503 -80.2267 269° West 280 322 3,400 -1,437 Descending Miami Center
Wed 12:35:14 AM 26.1269 -80.3325 256° West 210 242 2,000 -583 Descending Miami Center
Wed 12:36:14 AM 26.0836 -80.3033 149° Southeast 178 205 2,000 -305 Level Miami Center
Wed 12:37:12 AM 26.0744 -80.2522 101° East 156 180 1,400 -590 Descending Miami Center
Wed 12:38:16 AM 26.0753 -80.2106 89° East 133 153 800 -563 Descending Miami Center

Login

Don't have an account? Register now (free) for customized features, flight alerts, and more!